Time;durP1;ratioP1;P1;durP2;ratioP2;P2;SDS_P1;SDS_P2;PMS_P1;PMS_P2;Temp;Humidity;BMP_temperature;BMP_pressure;BME280_temperature;BME280_humidity;BME280_pressure;Samples;Min_cycle;Max_cycle;Signal;HPM_P1;HPM_P2
2022/08/21 00:00:53;;;;;;;10.43;3.83;;;20.90;79.80;;;;;;5091823;28;20016;-84
2022/08/21 00:03:19;;;;;;;12.18;3.88;;;20.90;80.10;;;;;;5062185;28;20024;-84
2022/08/21 00:05:49;;;;;;;5.50;3.45;;;20.90;80.60;;;;;;5088779;28;20139;-84
2022/08/21 00:08:16;;;;;;;7.68;3.55;;;20.80;80.80;;;;;;5112756;27;20028;-84
2022/08/21 00:10:43;;;;;;;7.47;3.15;;;20.80;81.00;;;;;;5067233;28;20028;-85
2022/08/21 00:13:09;;;;;;;10.55;3.40;;;20.80;81.30;;;;;;5080772;28;20460;-85
2022/08/21 00:15:36;;;;;;;6.30;3.05;;;20.70;81.30;;;;;;5074839;28;20093;-84
2022/08/21 00:18:04;;;;;;;6.45;3.22;;;20.70;81.40;;;;;;5082361;28;20020;-84
2022/08/21 00:20:31;;;;;;;9.10;3.58;;;20.70;81.50;;;;;;5085783;28;20371;-85
2022/08/21 00:22:56;;;;;;;6.28;3.42;;;20.70;81.50;;;;;;5097113;28;20059;-85
2022/08/21 00:25:22;;;;;;;6.00;3.40;;;20.60;81.40;;;;;;5076216;28;20024;-84
2022/08/21 00:27:48;;;;;;;6.15;3.10;;;20.60;81.50;;;;;;5070215;28;20032;-83
2022/08/21 00:30:17;;;;;;;4.50;3.00;;;20.60;81.70;;;;;;5078543;28;20035;-84
2022/08/21 00:32:44;;;;;;;7.03;3.40;;;20.50;81.80;;;;;;5096986;28;20019;-84
2022/08/21 00:35:13;;;;;;;8.75;3.22;;;20.50;82.00;;;;;;5077608;28;20016;-84
2022/08/21 00:37:40;;;;;;;6.30;3.47;;;20.50;82.10;;;;;;5075450;28;20460;-86
2022/08/21 00:40:09;;;;;;;5.78;3.15;;;20.40;82.10;;;;;;5082244;28;20037;-84
2022/08/21 00:42:35;;;;;;;7.18;3.50;;;20.40;82.20;;;;;;5097937;28;20038;-85
2022/08/21 00:45:01;;;;;;;9.40;3.35;;;20.40;82.30;;;;;;5077848;28;20024;-85
2022/08/21 00:47:26;;;;;;;5.68;3.08;;;20.30;82.40;;;;;;5102469;28;20023;-85
2022/08/21 00:49:52;;;;;;;4.80;2.78;;;20.30;82.50;;;;;;5056920;28;20108;-84
2022/08/21 00:52:22;;;;;;;6.57;3.00;;;20.30;82.60;;;;;;5071214;28;20460;-85
2022/08/21 00:54:50;;;;;;;5.40;2.95;;;20.30;82.60;;;;;;5097225;28;20008;-85
2022/08/21 00:57:20;;;;;;;6.53;3.45;;;20.20;82.60;;;;;;5084016;28;20031;-85
2022/08/21 00:59:49;;;;;;;6.35;3.20;;;20.20;82.70;;;;;;5094343;28;20016;-84
2022/08/21 01:02:16;;;;;;;6.82;2.83;;;20.10;82.90;;;;;;5076337;28;20024;-84
2022/08/21 01:04:42;;;;;;;4.85;3.17;;;20.10;83.10;;;;;;5069392;28;20071;-85
2022/08/21 01:07:09;;;;;;;5.30;3.05;;;20.10;83.30;;;;;;5063447;28;20451;-85
2022/08/21 01:09:35;;;;;;;9.38;2.90;;;20.10;83.40;;;;;;5082951;28;20031;-85
2022/08/21 01:12:02;;;;;;;5.00;2.92;;;20.00;83.50;;;;;;5077838;28;20036;-84
2022/08/21 01:14:29;;;;;;;5.55;3.20;;;20.00;83.70;;;;;;5109064;28;20479;-84
2022/08/21 01:16:56;;;;;;;5.88;2.75;;;20.00;84.00;;;;;;5085458;28;20372;-84
2022/08/21 01:19:23;;;;;;;5.88;3.20;;;20.00;84.10;;;;;;5080201;28;20024;-86
2022/08/21 01:21:49;;;;;;;6.45;3.10;;;19.90;84.10;;;;;;5100775;28;20492;-85
2022/08/21 01:24:15;;;;;;;6.80;3.60;;;19.90;84.30;;;;;;5093934;28;20023;-84
2022/08/21 01:26:42;;;;;;;7.45;3.55;;;19.80;84.50;;;;;;5080477;28;20410;-84
2022/08/21 01:29:37;;;;;;;7.68;3.40;;;19.80;84.80;;;;;;5071495;28;20027;-84
2022/08/21 01:32:07;;;;;;;5.97;2.90;;;19.80;85.10;;;;;;5076203;28;20043;-84
2022/08/21 01:34:36;;;;;;;6.67;3.40;;;19.70;85.20;;;;;;5076204;28;20077;-85
2022/08/21 01:37:02;;;;;;;5.13;3.10;;;19.70;85.40;;;;;;5075633;28;20102;-84
2022/08/21 01:39:28;;;;;;;5.65;3.30;;;19.70;85.70;;;;;;5074961;28;20473;-85
2022/08/21 01:41:54;;;;;;;7.20;3.30;;;19.70;85.90;;;;;;5095215;28;20112;-85
2022/08/21 01:44:21;;;;;;;6.80;3.50;;;19.70;86.00;;;;;;5064916;28;20031;-85
2022/08/21 01:46:48;;;;;;;5.45;3.30;;;19.60;86.10;;;;;;5067025;28;20024;-86
2022/08/21 01:49:15;;;;;;;6.82;3.50;;;19.60;86.30;;;;;;5101256;28;20028;-87
2022/08/21 01:51:41;;;;;;;9.05;3.95;;;19.60;86.40;;;;;;5117153;27;20035;-86
2022/08/21 01:54:06;;;;;;;8.68;3.80;;;19.60;86.50;;;;;;5062142;28;20027;-84
2022/08/21 01:56:42;;;;;;;6.68;3.88;;;19.60;86.60;;;;;;5079154;28;20038;-86
2022/08/21 01:59:09;;;;;;;5.68;3.35;;;19.50;86.60;;;;;;5085157;28;20118;-85
2022/08/21 02:01:35;;;;;;;5.45;3.50;;;19.50;86.70;;;;;;5075040;28;20035;-85
2022/08/21 02:04:01;;;;;;;8.88;4.20;;;19.50;86.90;;;;;;5078743;28;20464;-85
2022/08/21 02:06:27;;;;;;;9.40;4.15;;;19.50;87.10;;;;;;5059159;28;20017;-84
2022/08/21 02:08:53;;;;;;;6.93;3.20;;;19.40;87.20;;;;;;5061366;28;20054;-85
2022/08/21 02:11:19;;;;;;;5.97;3.42;;;19.40;87.40;;;;;;5057057;28;20024;-86
2022/08/21 02:13:45;;;;;;;5.32;3.08;;;19.40;87.50;;;;;;5065770;28;20028;-85
2022/08/21 02:16:11;;;;;;;4.72;2.88;;;19.30;87.50;;;;;;5081887;28;20099;-84
2022/08/21 02:18:37;;;;;;;6.15;3.78;;;19.30;87.60;;;;;;5112896;28;20571;-85
2022/08/21 02:21:03;;;;;;;8.82;3.63;;;19.30;87.80;;;;;;5083643;28;20099;-85
2022/08/21 02:23:29;;;;;;;6.45;3.10;;;19.30;88.00;;;;;;5065857;28;20104;-85
2022/08/21 02:25:57;;;;;;;8.73;3.60;;;19.30;88.00;;;;;;5078813;28;20425;-84
2022/08/21 02:28:23;;;;;;;6.55;3.05;;;19.20;88.10;;;;;;5092783;28;20012;-85
2022/08/21 02:30:49;;;;;;;6.25;3.35;;;19.20;88.20;;;;;;5084237;28;20044;-85
2022/08/21 02:33:16;;;;;;;5.82;3.28;;;19.20;88.40;;;;;;5121623;27;20032;-84
2022/08/21 02:35:43;;;;;;;7.18;3.78;;;19.10;88.50;;;;;;5090986;28;20022;-86
2022/08/21 02:38:12;;;;;;;5.28;3.30;;;19.10;88.50;;;;;;5072296;28;20028;-85
2022/08/21 02:40:39;;;;;;;6.78;3.80;;;19.00;88.60;;;;;;5085790;28;20016;-84
2022/08/21 02:43:06;;;;;;;6.28;3.40;;;19.00;88.80;;;;;;5083199;28;20057;-85
2022/08/21 02:45:34;;;;;;;5.05;3.10;;;19.00;89.10;;;;;;5124914;27;20038;-85
2022/08/21 02:48:04;;;;;;;5.93;3.60;;;19.00;89.30;;;;;;5079333;28;20057;-84
2022/08/21 02:50:40;;;;;;;8.23;3.45;;;18.90;89.50;;;;;;5089734;28;20020;-85
2022/08/21 02:53:07;;;;;;;5.82;3.55;;;18.90;89.70;;;;;;5105144;28;20046;-87
2022/08/21 02:55:35;;;;;;;5.38;3.78;;;18.90;89.90;;;;;;5106640;28;20030;-85
2022/08/21 02:58:01;;;;;;;6.95;3.58;;;18.90;90.00;;;;;;5080066;28;20078;-85
2022/08/21 03:00:30;;;;;;;7.07;3.60;;;18.80;90.00;;;;;;5102270;28;20036;-85
2022/08/21 03:02:57;;;;;;;7.40;4.05;;;18.80;90.10;;;;;;5079260;28;20038;-86
2022/08/21 03:05:25;;;;;;;5.75;3.45;;;18.80;90.20;;;;;;5067742;28;20028;-85
2022/08/21 03:07:52;;;;;;;7.40;3.55;;;18.80;90.20;;;;;;5083373;28;20024;-85
2022/08/21 03:10:22;;;;;;;7.35;2.97;;;18.80;90.30;;;;;;5079897;28;20058;-85
2022/08/21 03:12:48;;;;;;;5.57;3.33;;;18.80;90.40;;;;;;5074318;28;20062;-85
2022/08/21 03:15:17;;;;;;;6.10;3.53;;;18.70;90.40;;;;;;5097483;28;20266;-84
2022/08/21 03:17:44;;;;;;;4.82;3.13;;;18.70;90.70;;;;;;5106621;28;20467;-84
2022/08/21 03:20:10;;;;;;;6.45;3.05;;;18.70;90.50;;;;;;5082632;28;20457;-84
2022/08/21 03:22:36;;;;;;;4.03;2.75;;;18.70;90.70;;;;;;5101135;28;20060;-85
2022/08/21 03:25:03;;;;;;;4.13;2.58;;;18.60;90.90;;;;;;5079028;28;20395;-84
2022/08/21 03:27:30;;;;;;;4.80;2.50;;;18.60;91.00;;;;;;5097129;28;20032;-83
2022/08/21 03:29:56;;;;;;;4.13;2.42;;;18.50;90.90;;;;;;5098873;27;20129;-84
2022/08/21 03:32:22;;;;;;;5.60;3.00;;;18.50;91.00;;;;;;5069067;28;20054;-84
2022/08/21 03:34:47;;;;;;;4.47;2.80;;;18.50;90.90;;;;;;5083978;28;20482;-85
2022/08/21 03:37:14;;;;;;;5.97;3.10;;;18.50;91.00;;;;;;5060018;28;20364;-86
2022/08/21 03:39:41;;;;;;;6.38;2.55;;;18.50;91.00;;;;;;5075624;28;20036;-86
2022/08/21 03:42:08;;;;;;;4.47;2.28;;;18.40;91.00;;;;;;5077936;28;20024;-84
2022/08/21 03:44:34;;;;;;;8.77;3.47;;;18.40;91.00;;;;;;5076556;28;20024;-85
2022/08/21 03:47:00;;;;;;;4.65;2.70;;;18.40;91.10;;;;;;5099905;28;20023;-85
2022/08/21 03:49:26;;;;;;;4.72;2.60;;;18.40;91.10;;;;;;5081140;28;20012;-84
2022/08/21 03:51:52;;;;;;;6.55;3.20;;;18.40;91.20;;;;;;5089491;28;20071;-84
2022/08/21 03:54:18;;;;;;;12.48;2.95;;;18.40;91.20;;;;;;5094470;28;20028;-86
2022/08/21 03:56:44;;;;;;;5.75;3.30;;;18.30;91.30;;;;;;5097819;28;20024;-85
2022/08/21 03:59:10;;;;;;;7.07;3.35;;;18.30;91.40;;;;;;5078434;28;20054;-85
2022/08/21 04:01:36;;;;;;;7.50;3.83;;;18.30;91.40;;;;;;5094563;28;20547;-85
2022/08/21 04:04:03;;;;;;;7.28;4.00;;;18.20;91.40;;;;;;5080376;28;20080;-85
2022/08/21 04:06:28;;;;;;;7.10;3.55;;;18.20;91.50;;;;;;5074750;28;20073;-84
2022/08/21 04:08:54;;;;;;;7.78;3.42;;;18.20;91.60;;;;;;5099465;28;20024;-84
2022/08/21 04:11:20;;;;;;;6.80;3.63;;;18.20;91.60;;;;;;5099105;28;20475;-85
2022/08/21 04:13:47;;;;;;;7.10;3.65;;;18.20;91.70;;;;;;5083913;28;20094;-84
2022/08/21 04:16:13;;;;;;;7.32;3.90;;;18.10;91.70;;;;;;5082438;28;20479;-84
2022/08/21 04:18:39;;;;;;;7.97;4.03;;;18.10;91.80;;;;;;5102324;28;20051;-83
2022/08/21 04:21:07;;;;;;;9.95;4.00;;;18.10;91.90;;;;;;5090720;28;20039;-86
2022/08/21 04:23:33;;;;;;;9.38;4.38;;;18.10;92.00;;;;;;5100805;28;20036;-88
2022/08/21 04:25:58;;;;;;;8.00;4.03;;;18.10;92.00;;;;;;5103456;28;20022;-88
2022/08/21 04:28:26;;;;;;;6.57;3.42;;;18.10;92.10;;;;;;5068832;28;20027;-84
2022/08/21 04:30:52;;;;;;;8.65;4.07;;;18.00;92.10;;;;;;5059105;28;20031;-86
2022/08/21 04:33:18;;;;;;;8.90;4.20;;;18.00;92.20;;;;;;5065378;28;20028;-84
2022/08/21 04:35:44;;;;;;;6.35;3.80;;;18.00;92.30;;;;;;5078892;28;20506;-84
2022/08/21 04:38:10;;;;;;;7.75;3.97;;;18.00;92.30;;;;;;5079185;28;20108;-85
2022/08/21 04:40:36;;;;;;;7.82;3.22;;;17.90;92.30;;;;;;5098738;27;20022;-85
2022/08/21 04:43:06;;;;;;;5.47;3.53;;;17.90;92.40;;;;;;5066728;28;20036;-85
2022/08/21 04:45:34;;;;;;;6.80;4.00;;;17.90;92.50;;;;;;5076130;28;20016;-86
2022/08/21 04:48:03;;;;;;;6.35;3.35;;;17.90;92.60;;;;;;5103093;28;20097;-87
2022/08/21 04:50:41;;;;;;;4.10;3.15;;;17.90;92.70;;;;;;5084677;28;20059;-86
2022/08/21 04:53:14;;;;;;;4.47;2.80;;;17.90;92.70;;;;;;5084691;28;20024;-86
2022/08/21 04:55:43;;;;;;;4.45;2.60;;;17.90;92.70;;;;;;5078991;28;20096;-86
2022/08/21 04:58:12;;;;;;;5.13;2.63;;;17.80;92.80;;;;;;5072809;28;20385;-86
2022/08/21 05:00:40;;;;;;;4.65;2.40;;;17.80;92.80;;;;;;5076802;28;20020;-86
2022/08/21 05:03:07;;;;;;;5.13;2.50;;;17.80;92.90;;;;;;5094823;28;20126;-86
2022/08/21 05:05:34;;;;;;;6.32;2.78;;;17.80;93.00;;;;;;5106322;28;20021;-86
2022/08/21 05:08:02;;;;;;;4.13;2.60;;;17.70;93.00;;;;;;5099239;28;20027;-86
2022/08/21 05:10:28;;;;;;;6.57;3.13;;;17.70;93.10;;;;;;5091869;28;20070;-86
2022/08/21 05:12:54;;;;;;;5.03;2.97;;;17.70;93.20;;;;;;5064321;28;20136;-87
2022/08/21 05:15:21;;;;;;;5.90;3.03;;;17.70;93.30;;;;;;5089039;28;20019;-86
2022/08/21 05:17:47;;;;;;;5.63;3.20;;;17.60;93.40;;;;;;5109022;27;20018;-87
2022/08/21 05:20:14;;;;;;;4.93;3.15;;;17.60;93.40;;;;;;5074047;28;20032;-86
2022/08/21 05:22:40;;;;;;;6.63;3.50;;;17.60;93.50;;;;;;5073056;28;20049;-87
2022/08/21 05:25:08;;;;;;;9.43;3.65;;;17.60;93.60;;;;;;5069624;28;20037;-85
2022/08/21 05:27:34;;;;;;;7.82;3.55;;;17.60;93.70;;;;;;5109668;27;20024;-86
2022/08/21 05:30:01;;;;;;;6.25;3.58;;;17.60;93.90;;;;;;5096459;28;20024;-86
2022/08/21 05:32:28;;;;;;;7.00;3.40;;;17.60;94.00;;;;;;5098108;28;20016;-86
2022/08/21 05:34:54;;;;;;;8.35;3.67;;;17.60;94.20;;;;;;5091616;28;20468;-85
2022/08/21 05:37:20;;;;;;;6.78;3.78;;;17.60;94.30;;;;;;5060015;28;20600;-86
2022/08/21 05:39:45;;;;;;;9.77;4.28;;;17.60;94.40;;;;;;5079998;28;20032;-86
2022/08/21 05:42:11;;;;;;;8.35;4.05;;;17.60;94.50;;;;;;5053339;28;20017;-78
2022/08/21 05:44:37;;;;;;;9.40;5.20;;;17.60;94.60;;;;;;5080770;28;20084;-77
2022/08/21 05:47:08;;;;;;;8.77;5.47;;;17.60;94.80;;;;;;5072904;28;20070;-77
2022/08/21 05:49:34;;;;;;;10.15;4.85;;;17.60;94.90;;;;;;5079887;28;20106;-77
2022/08/21 05:52:01;;;;;;;13.27;6.15;;;17.70;95.10;;;;;;5116785;28;20032;-77
2022/08/21 05:54:27;;;;;;;9.90;6.05;;;17.70;95.20;;;;;;5096508;28;20031;-78
2022/08/21 05:56:53;;;;;;;11.35;5.80;;;17.70;95.30;;;;;;5085641;28;20016;-77
2022/08/21 05:59:19;;;;;;;10.45;5.70;;;17.70;95.40;;;;;;5103496;28;20058;-78
2022/08/21 06:01:45;;;;;;;8.00;5.70;;;17.70;95.60;;;;;;5109016;28;20383;-78
2022/08/21 06:04:11;;;;;;;11.10;6.70;;;17.80;95.80;;;;;;5109949;28;20031;-77
2022/08/21 06:06:37;;;;;;;13.80;7.25;;;17.80;95.80;;;;;;5077204;28;20027;-78
2022/08/21 06:09:04;;;;;;;12.10;7.03;;;17.80;96.00;;;;;;5087595;28;20035;-78
2022/08/21 06:11:30;;;;;;;10.93;7.07;;;17.80;96.00;;;;;;5108712;28;20024;-77
2022/08/21 06:13:56;;;;;;;9.80;6.90;;;17.80;96.20;;;;;;5095689;28;20176;-78
2022/08/21 06:16:22;;;;;;;13.85;7.40;;;17.90;96.30;;;;;;5090682;28;20519;-78
2022/08/21 06:18:48;;;;;;;9.65;6.85;;;17.90;96.40;;;;;;5099660;28;20027;-77
2022/08/21 06:21:14;;;;;;;11.80;6.65;;;17.90;96.50;;;;;;5090660;28;20463;-77
2022/08/21 06:23:41;;;;;;;9.27;6.82;;;17.90;96.50;;;;;;5107202;28;20039;-78
2022/08/21 06:26:07;;;;;;;11.18;5.30;;;17.90;96.60;;;;;;5078701;28;20110;-78
2022/08/21 06:28:33;;;;;;;10.15;5.78;;;18.00;96.60;;;;;;5103000;28;20124;-79
2022/08/21 06:30:59;;;;;;;9.02;5.60;;;18.00;96.60;;;;;;5099932;28;20020;-78
2022/08/21 06:33:25;;;;;;;10.43;5.72;;;18.00;96.70;;;;;;5065724;28;20127;-78
2022/08/21 06:35:51;;;;;;;13.13;6.47;;;18.00;96.80;;;;;;5095417;28;20032;-80
2022/08/21 06:38:17;;;;;;;11.98;5.43;;;18.10;96.80;;;;;;5113147;28;20028;-77
2022/08/21 06:40:43;;;;;;;8.20;5.25;;;18.10;96.90;;;;;;5087067;28;20036;-77
2022/08/21 06:43:13;;;;;;;13.63;5.57;;;18.10;97.00;;;;;;5111575;28;20114;-77
2022/08/21 06:45:39;;;;;;;14.20;6.13;;;18.20;97.00;;;;;;5100921;28;20032;-78
2022/08/21 06:48:06;;;;;;;12.75;6.30;;;18.20;97.10;;;;;;5083651;28;20498;-78
2022/08/21 06:50:32;;;;;;;15.55;5.78;;;18.20;97.10;;;;;;5093167;28;20533;-77
2022/08/21 06:53:10;;;;;;;11.70;5.75;;;18.30;97.20;;;;;;5079537;28;20111;-77
2022/08/21 06:55:37;;;;;;;14.95;5.40;;;18.30;97.20;;;;;;5080878;28;20047;-78
2022/08/21 06:58:04;;;;;;;11.93;5.22;;;18.40;97.30;;;;;;5088516;28;20024;-78
2022/08/21 07:00:30;;;;;;;14.93;5.22;;;18.40;97.30;;;;;;5099339;28;20016;-78
2022/08/21 07:02:56;;;;;;;9.75;4.57;;;18.40;97.30;;;;;;5094231;28;20062;-77
2022/08/21 07:05:25;;;;;;;9.98;5.28;;;18.50;97.40;;;;;;5089300;27;20803;-78
2022/08/21 07:07:51;;;;;;;11.02;4.78;;;18.50;97.40;;;;;;5076796;28;20039;-77
2022/08/21 07:10:17;;;;;;;11.38;4.93;;;18.60;97.50;;;;;;5088751;28;20521;-78
2022/08/21 07:12:42;;;;;;;15.15;6.30;;;18.70;97.50;;;;;;5095980;28;20460;-77
2022/08/21 07:15:09;;;;;;;11.57;5.43;;;18.70;97.60;;;;;;5108819;27;20038;-77
2022/08/21 07:17:34;;;;;;;12.65;5.00;;;18.80;97.50;;;;;;5090232;28;20016;-77
2022/08/21 07:20:00;;;;;;;12.63;4.60;;;18.80;97.50;;;;;;5069814;28;20069;-77
2022/08/21 07:22:27;;;;;;;9.85;4.97;;;18.90;97.50;;;;;;5064156;28;20396;-77
2022/08/21 07:24:53;;;;;;;8.75;4.20;;;18.90;97.50;;;;;;5080778;28;20418;-77
2022/08/21 07:27:19;;;;;;;10.43;4.70;;;19.00;97.50;;;;;;5096469;28;20082;-77
2022/08/21 07:29:45;;;;;;;12.82;5.30;;;19.10;97.60;;;;;;5101889;28;20031;-76
2022/08/21 07:32:10;;;;;;;13.20;5.10;;;19.20;97.60;;;;;;5085560;28;20038;-76
2022/08/21 07:34:36;;;;;;;10.43;4.90;;;19.20;97.60;;;;;;5091621;28;20035;-77
2022/08/21 07:37:02;;;;;;;11.38;4.80;;;19.30;97.60;;;;;;5083719;28;20028;-77
2022/08/21 07:39:27;;;;;;;13.35;6.57;;;19.40;97.50;;;;;;5074155;28;20515;-78
2022/08/21 07:41:53;;;;;;;12.70;6.15;;;19.40;97.50;;;;;;5080355;28;20044;-77
2022/08/21 07:44:19;;;;;;;11.43;5.55;;;19.50;97.40;;;;;;5094256;28;20502;-83
2022/08/21 07:46:44;;;;;;;8.95;4.88;;;19.60;97.50;;;;;;5061242;28;20039;-81
2022/08/21 07:49:10;;;;;;;11.43;4.70;;;19.60;97.30;;;;;;5095110;28;20482;-82
2022/08/21 07:51:35;;;;;;;12.60;5.43;;;19.70;97.30;;;;;;5061892;28;20119;-83
2022/08/21 07:54:01;;;;;;;11.88;5.80;;;19.80;97.30;;;;;;5094069;28;20393;-84
2022/08/21 07:56:28;;;;;;;13.98;5.97;;;19.90;97.20;;;;;;5067342;28;20024;-85
2022/08/21 07:58:54;;;;;;;13.57;5.22;;;20.00;97.20;;;;;;5062237;28;20032;-85
2022/08/21 08:01:19;;;;;;;12.55;6.13;;;20.10;97.20;;;;;;5080084;28;20077;-85
2022/08/21 08:03:46;;;;;;;11.70;5.07;;;20.10;97.10;;;;;;5063411;28;20163;-84
2022/08/21 08:06:12;;;;;;;11.60;5.03;;;20.20;97.00;;;;;;5070449;28;20024;-85
2022/08/21 08:08:40;;;;;;;12.93;4.97;;;20.30;97.00;;;;;;5088633;28;20027;-84
2022/08/21 08:11:06;;;;;;;13.23;5.10;;;20.40;97.00;;;;;;5062802;28;20027;-85
2022/08/21 08:13:37;;;;;;;11.18;4.85;;;20.40;96.90;;;;;;5093147;28;20035;-84
2022/08/21 08:16:03;;;;;;;13.90;5.47;;;20.50;96.90;;;;;;5061767;28;20021;-86
2022/08/21 08:18:29;;;;;;;22.13;5.88;;;20.60;96.90;;;;;;5075219;28;20090;-84
2022/08/21 08:20:54;;;;;;;8.95;4.25;;;20.60;96.90;;;;;;5081533;28;20039;-84
2022/08/21 08:23:20;;;;;;;15.93;5.55;;;20.70;96.90;;;;;;5045017;28;20088;-82
2022/08/21 08:25:46;;;;;;;15.35;4.90;;;20.80;96.90;;;;;;5056701;28;20036;-83
2022/08/21 08:28:11;;;;;;;11.82;4.38;;;20.90;96.80;;;;;;5023067;28;20020;-84
2022/08/21 08:30:37;;;;;;;12.55;4.30;;;21.00;96.80;;;;;;5038378;28;20048;-82
2022/08/21 08:33:03;;;;;;;11.50;4.55;;;21.10;96.70;;;;;;5056747;28;20029;-83
2022/08/21 08:35:29;;;;;;;12.95;4.97;;;21.20;96.60;;;;;;5039228;28;20041;-83
2022/08/21 08:37:55;;;;;;;13.48;4.82;;;21.30;96.60;;;;;;5023783;28;20023;-82
2022/08/21 08:40:48;;;;;;;10.77;3.88;;;21.40;96.50;;;;;;5037744;28;20060;-83
2022/08/21 08:43:14;;;;;;;14.27;3.78;;;21.50;96.40;;;;;;5031210;28;20080;-82
2022/08/21 08:45:45;;;;;;;13.15;4.32;;;21.60;96.30;;;;;;5034562;28;20040;-83
2022/08/21 08:48:13;;;;;;;;;;;21.70;96.10;;;;;;5056362;28;20017;-83
2022/08/21 08:50:48;;;;;;;17.13;4.43;;;21.70;95.80;;;;;;5034314;28;19912;-82
2022/08/21 08:53:33;;;;;;;13.82;4.50;;;21.80;95.90;;;;;;5039027;28;20024;-82
2022/08/21 08:56:02;;;;;;;10.50;3.65;;;21.90;95.50;;;;;;5058096;28;20048;-83
2022/08/21 08:58:42;;;;;;;9.02;3.58;;;22.00;95.40;;;;;;5022833;28;20060;-83
2022/08/21 09:01:17;;;;;;;9.02;3.33;;;22.10;95.20;;;;;;5081700;28;20133;-83
2022/08/21 09:03:49;;;;;;;11.15;3.58;;;22.20;95.00;;;;;;5066581;28;20028;-82
2022/08/21 09:06:33;;;;;;;11.50;3.42;;;22.30;94.80;;;;;;5031645;28;20114;-83
2022/08/21 09:09:24;;;;;;;7.15;3.13;;;22.40;94.60;;;;;;5042285;28;20027;-84
2022/08/21 09:12:11;;;;;;;13.00;3.08;;;22.50;94.50;;;;;;5069860;28;20107;-82
2022/08/21 09:14:55;;;;;;;13.23;3.17;;;22.60;94.40;;;;;;5041712;28;20012;-83
2022/08/21 09:17:49;;;;;;;7.57;2.40;;;22.60;94.00;;;;;;5037380;28;20020;-82
2022/08/21 09:20:20;;;;;;;13.15;3.10;;;22.70;93.50;;;;;;5035487;28;20017;-84
2022/08/21 09:23:16;;;;;;;9.85;2.80;;;22.80;93.40;;;;;;5043727;28;20480;-82
2022/08/21 09:26:06;;;;;;;8.73;2.38;;;22.90;93.10;;;;;;5050397;28;20020;-82
2022/08/21 09:28:36;;;;;;;10.68;2.65;;;23.00;92.80;;;;;;5067862;28;20025;-82
2022/08/21 09:31:24;;;;;;;9.90;2.58;;;23.00;92.50;;;;;;5058294;28;20024;-83
2022/08/21 09:33:49;;;;;;;8.90;2.40;;;23.10;92.30;;;;;;5059140;28;20024;-82
2022/08/21 09:36:37;;;;;;;7.32;2.22;;;23.20;92.00;;;;;;5077832;28;20033;-81
2022/08/21 09:39:04;;;;;;;8.68;2.38;;;23.20;91.80;;;;;;5081741;28;20043;-80
2022/08/21 09:41:34;;;;;;;11.50;2.70;;;23.30;91.70;;;;;;5072108;28;20028;-81
2022/08/21 09:44:01;;;;;;;7.20;2.17;;;23.30;91.30;;;;;;5073870;28;20028;-81
2022/08/21 09:46:28;;;;;;;8.50;2.35;;;23.40;91.00;;;;;;5083423;28;20040;-81
2022/08/21 09:48:59;;;;;;;11.43;2.40;;;23.40;90.20;;;;;;5028495;28;20029;-81
2022/08/21 09:51:36;;;;;;;7.88;2.45;;;23.40;90.10;;;;;;5074779;28;20047;-81
2022/08/21 09:54:05;;;;;;;5.50;1.92;;;23.50;90.00;;;;;;5091602;28;20081;-80
2022/08/21 09:59:31;;;;;;;7.55;2.10;;;23.60;90.10;;;;;;5077960;28;20081;-81
2022/08/21 10:02:01;;;;;;;7.32;1.75;;;23.70;89.60;;;;;;5088974;28;20446;-82
2022/08/21 10:04:33;;;;;;;8.02;1.80;;;23.70;88.40;;;;;;5094152;28;20438;-81
2022/08/21 10:07:13;;;;;;;8.02;2.17;;;23.80;88.30;;;;;;5057651;28;20077;-81
2022/08/21 10:09:40;;;;;;;10.18;2.08;;;23.90;88.00;;;;;;5064361;28;20024;-80
2022/08/21 10:12:24;;;;;;;4.43;1.30;;;23.90;87.50;;;;;;5084563;28;20012;-81
2022/08/21 10:15:10;;;;;;;9.13;1.83;;;24.00;86.60;;;;;;5048431;28;20456;-81
2022/08/21 10:17:55;;;;;;;8.90;2.05;;;24.10;86.60;;;;;;5054882;28;20044;-81
2022/08/21 10:20:28;;;;;;;6.93;1.70;;;24.20;85.50;;;;;;5091869;28;20082;-81
2022/08/21 10:23:13;;;;;;;9.93;2.15;;;24.30;85.90;;;;;;5053645;28;20551;-81
2022/08/21 10:25:55;;;;;;;7.65;2.15;;;24.30;85.90;;;;;;5064083;28;20043;-81
2022/08/21 10:28:54;;;;;;;7.75;1.60;;;24.40;85.50;;;;;;5064034;28;20028;-81
2022/08/21 10:31:35;;;;;;;7.38;1.48;;;24.50;84.50;;;;;;5065394;28;20546;-84
2022/08/21 10:34:16;;;;;;;5.90;1.77;;;24.50;84.30;;;;;;5071438;28;20472;-80
2022/08/21 10:36:47;;;;;;;;;;;24.60;84.10;;;;;;5054927;28;20048;-81
2022/08/21 10:39:27;;;;;;;5.80;1.58;;;24.60;82.30;;;;;;5056893;28;19904;-80
2022/08/21 10:42:24;;;;;;;12.47;2.20;;;24.60;82.40;;;;;;5073300;28;20131;-81
2022/08/21 10:45:15;;;;;;;8.43;1.88;;;24.70;81.70;;;;;;5086106;28;20275;-81
2022/08/21 10:47:51;;;;;;;8.68;1.60;;;24.60;81.30;;;;;;5074205;28;20012;-81
2022/08/21 10:50:31;;;;;;;5.90;1.50;;;24.70;82.00;;;;;;5072692;28;20484;-81
2022/08/21 10:53:03;;;;;;;6.53;1.60;;;24.70;81.70;;;;;;5059141;28;20021;-81
2022/08/21 10:56:09;;;;;;;3.83;1.20;;;24.80;82.30;;;;;;5090171;28;20131;-81
2022/08/21 10:58:49;;;;;;;5.60;1.45;;;24.90;81.60;;;;;;5060108;28;20400;-84
2022/08/21 11:01:28;;;;;;;4.45;1.40;;;24.90;80.90;;;;;;5059029;28;20518;-82
2022/08/21 11:04:12;;;;;;;5.00;1.70;;;25.00;80.10;;;;;;5079427;28;20074;-81
2022/08/21 11:06:44;;;;;;;6.28;1.90;;;25.00;80.10;;;;;;5082124;28;20024;-83
2022/08/21 11:09:14;;;;;;;5.32;1.50;;;25.10;80.10;;;;;;5065021;28;20021;-82
2022/08/21 11:11:49;;;;;;;;;;;25.10;80.20;;;;;;5095876;28;20079;-82
2022/08/21 11:14:30;;;;;;;7.30;1.40;;;25.20;80.30;;;;;;5097569;28;19904;-81
2022/08/21 11:17:09;;;;;;;6.80;2.08;;;25.20;80.40;;;;;;5057834;28;20374;-82
2022/08/21 11:19:49;;;;;;;6.95;1.90;;;25.30;80.40;;;;;;5096955;28;20034;-82
2022/08/21 11:22:21;;;;;;;;;;;25.40;79.40;;;;;;5063338;28;20120;-83
2022/08/21 11:25:08;;;;;;;6.32;1.70;;;25.50;79.60;;;;;;5072202;28;19904;-82
2022/08/21 11:27:52;;;;;;;6.05;1.55;;;25.50;79.50;;;;;;5069045;28;20061;-82
2022/08/21 11:30:18;;;;;;;7.28;2.10;;;25.60;78.10;;;;;;5078655;28;20021;-82
2022/08/21 11:33:05;;;;;;;4.93;1.50;;;25.70;77.70;;;;;;5046299;28;20026;-82
2022/08/21 11:35:47;;;;;;;4.57;1.88;;;25.80;76.70;;;;;;5082318;28;20025;-81
2022/08/21 11:38:18;;;;;;;6.85;2.20;;;25.80;75.10;;;;;;5067300;28;20455;-82
2022/08/21 11:40:50;;;;;;;4.55;1.75;;;25.90;74.80;;;;;;5059071;28;20028;-81
2022/08/21 11:43:53;;;;;;;6.05;1.25;;;25.90;74.10;;;;;;5093634;28;20477;-82
2022/08/21 11:46:49;;;;;;;5.07;1.60;;;25.90;74.10;;;;;;5073041;28;20099;-81
2022/08/21 11:49:26;;;;;;;4.03;1.38;;;26.00;74.30;;;;;;5077720;28;20028;-83
2022/08/21 11:52:01;;;;;;;4.70;1.20;;;26.00;74.50;;;;;;5080444;28;20418;-87
2022/08/21 11:54:45;;;;;;;8.07;1.75;;;26.10;74.30;;;;;;5056978;28;20048;-81
2022/08/21 11:57:30;;;;;;;3.78;1.25;;;26.20;73.00;;;;;;5059923;28;20021;-82
2022/08/21 12:00:10;;;;;;;5.85;1.63;;;26.30;72.20;;;;;;5088807;28;20448;-82
2022/08/21 12:02:42;;;;;;;5.78;1.33;;;26.40;72.10;;;;;;5055350;28;20101;-83
2022/08/21 12:05:11;;;;;;;5.00;1.08;;;26.50;71.70;;;;;;5078663;28;20036;-82
2022/08/21 12:07:44;;;;;;;5.82;1.40;;;26.50;70.90;;;;;;5095495;28;20020;-82
2022/08/21 12:10:14;;;;;;;4.93;1.42;;;26.60;70.20;;;;;;5081176;28;20032;-82
2022/08/21 12:12:42;;;;;;;5.90;1.53;;;26.60;68.90;;;;;;5077013;28;20074;-82
2022/08/21 12:15:20;;;;;;;7.63;1.70;;;26.70;68.90;;;;;;5066212;28;20360;-84
2022/08/21 12:18:04;;;;;;;5.05;1.50;;;26.70;69.00;;;;;;5071644;28;20159;-82
2022/08/21 12:20:44;;;;;;;5.45;1.42;;;26.70;68.70;;;;;;5081211;28;20118;-84
2022/08/21 12:23:48;;;;;;;6.33;1.60;;;26.80;68.80;;;;;;5075977;28;20175;-82
2022/08/21 12:26:28;;;;;;;5.60;1.58;;;26.90;68.60;;;;;;5069444;28;20279;-82
2022/08/21 12:29:15;;;;;;;5.85;1.60;;;27.00;68.70;;;;;;5064020;28;20009;-82
2022/08/21 12:32:09;;;;;;;6.63;1.70;;;27.10;67.00;;;;;;5089695;28;20020;-82
2022/08/21 12:34:55;;;;;;;5.63;1.60;;;27.10;66.90;;;;;;5045298;28;20041;-84
2022/08/21 12:37:37;;;;;;;4.57;1.27;;;27.20;67.10;;;;;;5069749;28;20020;-75
2022/08/21 12:40:10;;;;;;;6.03;1.50;;;27.20;66.50;;;;;;5074289;28;20023;-74
2022/08/21 12:42:45;;;;;;;7.50;1.25;;;27.30;66.60;;;;;;5088397;28;20040;-74
2022/08/21 12:45:20;;;;;;;6.40;1.35;;;27.40;65.90;;;;;;5069005;28;20051;-74
2022/08/21 12:48:01;;;;;;;5.47;1.15;;;27.40;65.30;;;;;;5071182;28;20472;-73
2022/08/21 12:50:41;;;;;;;3.45;1.10;;;27.50;65.20;;;;;;5054410;28;20016;-73
2022/08/21 12:53:33;;;;;;;3.28;1.17;;;27.50;65.50;;;;;;5069857;28;20028;-73
2022/08/21 12:56:03;;;;;;;8.13;1.23;;;27.60;65.20;;;;;;5085814;28;20512;-73
2022/08/21 12:58:30;;;;;;;4.68;1.40;;;27.60;65.50;;;;;;5071251;28;20078;-74
2022/08/21 13:01:12;;;;;;;5.88;1.48;;;27.70;64.60;;;;;;5070267;28;20027;-74
2022/08/21 13:03:38;;;;;;;3.55;1.05;;;27.80;62.60;;;;;;5077159;28;20039;-75
2022/08/21 13:06:05;;;;;;;4.28;1.20;;;27.80;61.80;;;;;;5052889;28;20609;-75